sensor_id;sensor_type;location;lat;lon;timestamp;pressure;altitude;pressure_sealevel;temperature;humidity
62978;BME280;49073;42.352;23.808;2023-05-12T00:00:54;95072.78;;;6.77;86.75
62978;BME280;49073;42.352;23.808;2023-05-12T00:03:55;95067.28;;;6.82;87.06
62978;BME280;49073;42.352;23.808;2023-05-12T00:06:56;95068.84;;;6.83;86.68
62978;BME280;49073;42.352;23.808;2023-05-12T00:09:57;95080.53;;;6.82;86.80
62978;BME280;49073;42.352;23.808;2023-05-12T00:12:57;95076.06;;;6.74;86.93
62978;BME280;49073;42.352;23.808;2023-05-12T00:15:58;95081.19;;;6.79;87.13
62978;BME280;49073;42.352;23.808;2023-05-12T00:18:58;95075.56;;;6.81;86.72
62978;BME280;49073;42.352;23.808;2023-05-12T00:21:59;95073.41;;;6.74;87.03
62978;BME280;49073;42.352;23.808;2023-05-12T00:24:59;95071.25;;;6.67;87.31
62978;BME280;49073;42.352;23.808;2023-05-12T00:28:00;95074.03;;;6.80;87.03
62978;BME280;49073;42.352;23.808;2023-05-12T00:31:02;95074.59;;;6.86;86.71
62978;BME280;49073;42.352;23.808;2023-05-12T00:34:03;95064.72;;;6.65;86.47
62978;BME280;49073;42.352;23.808;2023-05-12T00:37:03;95071.25;;;6.67;87.45
62978;BME280;49073;42.352;23.808;2023-05-12T00:40:05;95068.28;;;6.69;87.09
62978;BME280;49073;42.352;23.808;2023-05-12T00:43:05;95071.88;;;6.64;88.02
62978;BME280;49073;42.352;23.808;2023-05-12T00:46:06;95070.47;;;6.67;88.11
62978;BME280;49073;42.352;23.808;2023-05-12T00:49:07;95082.28;;;6.78;88.15
62978;BME280;49073;42.352;23.808;2023-05-12T00:52:08;95079.00;;;6.73;88.25
62978;BME280;49073;42.352;23.808;2023-05-12T00:55:09;95071.25;;;6.67;88.28
62978;BME280;49073;42.352;23.808;2023-05-12T00:58:09;95074.16;;;6.75;88.97
62978;BME280;49073;42.352;23.808;2023-05-12T01:01:10;95077.91;;;6.74;88.98
62978;BME280;49073;42.352;23.808;2023-05-12T01:04:11;95075.13;;;6.70;89.71
62978;BME280;49073;42.352;23.808;2023-05-12T01:07:31;95072.03;;;6.68;89.46
62978;BME280;49073;42.352;23.808;2023-05-12T01:10:32;95079.59;;;6.87;89.46
62978;BME280;49073;42.352;23.808;2023-05-12T01:13:33;95076.75;;;6.92;89.56
62978;BME280;49073;42.352;23.808;2023-05-12T01:16:41;95078.97;;;6.90;89.66
62978;BME280;49073;42.352;23.808;2023-05-12T01:19:59;95073.97;;;6.89;90.17
62978;BME280;49073;42.352;23.808;2023-05-12T01:23:01;95075.97;;;6.92;90.13
62978;BME280;49073;42.352;23.808;2023-05-12T01:26:07;95074.59;;;6.86;90.65
62978;BME280;49073;42.352;23.808;2023-05-12T01:29:08;95071.66;;;6.87;90.97
62978;BME280;49073;42.352;23.808;2023-05-12T01:32:08;95071.66;;;6.87;91.48
62978;BME280;49073;42.352;23.808;2023-05-12T01:35:10;95079.69;;;6.99;91.19
62978;BME280;49073;42.352;23.808;2023-05-12T01:38:10;95072.03;;;6.98;92.56
62978;BME280;49073;42.352;23.808;2023-05-12T01:41:11;95076.78;;;6.83;95.32
62978;BME280;49073;42.352;23.808;2023-05-12T01:44:11;95071.25;;;6.67;97.92
62978;BME280;49073;42.352;23.808;2023-05-12T01:47:12;95068.78;;;6.62;99.66
62978;BME280;49073;42.352;23.808;2023-05-12T01:50:15;95068.66;;;6.59;100.00
62978;BME280;49073;42.352;23.808;2023-05-12T01:53:15;95065.75;;;6.73;100.00
62978;BME280;49073;42.352;23.808;2023-05-12T01:56:16;95067.47;;;6.77;100.00
62978;BME280;49073;42.352;23.808;2023-05-12T01:59:16;95065.09;;;6.84;100.00
62978;BME280;49073;42.352;23.808;2023-05-12T02:02:17;95065.91;;;6.76;100.00
62978;BME280;49073;42.352;23.808;2023-05-12T02:05:17;95065.31;;;6.70;100.00
62978;BME280;49073;42.352;23.808;2023-05-12T02:08:18;95063.28;;;6.67;100.00
62978;BME280;49073;42.352;23.808;2023-05-12T02:11:19;95061.34;;;6.55;100.00
62978;BME280;49073;42.352;23.808;2023-05-12T02:14:20;95058.63;;;6.64;100.00
62978;BME280;49073;42.352;23.808;2023-05-12T02:17:20;95059.56;;;6.68;100.00
62978;BME280;49073;42.352;23.808;2023-05-12T02:20:24;95067.28;;;6.82;100.00
62978;BME280;49073;42.352;23.808;2023-05-12T02:23:24;95059.31;;;6.91;100.00
62978;BME280;49073;42.352;23.808;2023-05-12T02:26:25;95061.97;;;6.91;100.00
62978;BME280;49073;42.352;23.808;2023-05-12T02:29:27;95061.78;;;6.96;100.00
62978;BME280;49073;42.352;23.808;2023-05-12T02:32:27;95061.63;;;6.93;100.00
62978;BME280;49073;42.352;23.808;2023-05-12T02:35:28;95062.41;;;6.93;100.00
62978;BME280;49073;42.352;23.808;2023-05-12T02:38:29;95056.38;;;6.84;100.00
62978;BME280;49073;42.352;23.808;2023-05-12T02:41:30;95057.31;;;6.88;100.00
62978;BME280;49073;42.352;23.808;2023-05-12T02:44:30;95056.41;;;6.75;100.00
62978;BME280;49073;42.352;23.808;2023-05-12T02:47:31;95057.75;;;6.90;100.00
62978;BME280;49073;42.352;23.808;2023-05-12T02:50:32;95059.63;;;6.90;100.00
62978;BME280;49073;42.352;23.808;2023-05-12T02:53:32;95063.34;;;6.97;100.00
62978;BME280;49073;42.352;23.808;2023-05-12T02:56:33;95065.19;;;6.97;100.00
62978;BME280;49073;42.352;23.808;2023-05-12T02:59:33;95065.53;;;6.95;100.00
62978;BME280;49073;42.352;23.808;2023-05-12T03:02:35;95061.50;;;6.89;100.00
62978;BME280;49073;42.352;23.808;2023-05-12T03:05:36;95060.25;;;6.87;100.00
62978;BME280;49073;42.352;23.808;2023-05-12T03:08:36;95057.66;;;6.78;100.00
62978;BME280;49073;42.352;23.808;2023-05-12T03:11:37;95056.56;;;6.79;100.00
62978;BME280;49073;42.352;23.808;2023-05-12T03:14:38;95055.16;;;6.81;100.00
62978;BME280;49073;42.352;23.808;2023-05-12T03:17:38;95056.56;;;6.79;100.00
62978;BME280;49073;42.352;23.808;2023-05-12T03:20:39;95062.34;;;6.81;100.00
62978;BME280;49073;42.352;23.808;2023-05-12T03:23:40;95062.63;;;6.79;100.00
62978;BME280;49073;42.352;23.808;2023-05-12T03:26:40;95059.50;;;6.86;100.00
62978;BME280;49073;42.352;23.808;2023-05-12T03:29:41;95064.47;;;6.88;100.00
62978;BME280;49073;42.352;23.808;2023-05-12T03:32:42;95069.28;;;6.94;100.00
62978;BME280;49073;42.352;23.808;2023-05-12T03:35:43;95080.25;;;7.05;100.00
62978;BME280;49073;42.352;23.808;2023-05-12T03:38:43;95072.44;;;7.18;100.00
62978;BME280;49073;42.352;23.808;2023-05-12T03:41:44;95076.75;;;7.22;100.00
62978;BME280;49073;42.352;23.808;2023-05-12T03:44:46;95085.06;;;7.12;100.00
62978;BME280;49073;42.352;23.808;2023-05-12T03:47:46;95085.81;;;6.91;100.00
62978;BME280;49073;42.352;23.808;2023-05-12T03:50:47;95087.66;;;6.91;100.00
62978;BME280;49073;42.352;23.808;2023-05-12T03:53:47;95086.84;;;6.99;100.00
62978;BME280;49073;42.352;23.808;2023-05-12T03:56:48;95091.00;;;6.79;100.00
62978;BME280;49073;42.352;23.808;2023-05-12T03:59:48;95093.94;;;6.86;100.00
62978;BME280;49073;42.352;23.808;2023-05-12T04:02:49;95088.34;;;6.79;100.00
62978;BME280;49073;42.352;23.808;2023-05-12T04:05:50;95086.66;;;6.74;100.00
62978;BME280;49073;42.352;23.808;2023-05-12T04:08:51;95095.69;;;6.73;100.00
62978;BME280;49073;42.352;23.808;2023-05-12T04:11:51;95095.06;;;6.76;100.00
62978;BME280;49073;42.352;23.808;2023-05-12T04:14:52;95087.84;;;6.86;100.00
62978;BME280;49073;42.352;23.808;2023-05-12T04:17:52;95096.44;;;6.82;100.00
62978;BME280;49073;42.352;23.808;2023-05-12T04:20:54;95098.88;;;6.96;100.00
62978;BME280;49073;42.352;23.808;2023-05-12T04:23:55;95099.63;;;6.97;100.00
62978;BME280;49073;42.352;23.808;2023-05-12T04:26:56;95088.47;;;6.82;100.00
62978;BME280;49073;42.352;23.808;2023-05-12T04:29:57;95098.16;;;6.78;100.00
62978;BME280;49073;42.352;23.808;2023-05-12T04:32:57;95092.88;;;6.69;100.00
62978;BME280;49073;42.352;23.808;2023-05-12T04:35:58;95100.09;;;6.60;100.00
62978;BME280;49073;42.352;23.808;2023-05-12T04:38:58;95095.72;;;6.64;100.00
62978;BME280;49073;42.352;23.808;2023-05-12T04:42:00;95097.31;;;6.57;100.00
62978;BME280;49073;42.352;23.808;2023-05-12T04:45:01;95102.00;;;6.42;100.00
62978;BME280;49073;42.352;23.808;2023-05-12T04:48:01;95099.66;;;6.49;100.00
62978;BME280;49073;42.352;23.808;2023-05-12T04:51:02;95097.16;;;6.53;100.00
62978;BME280;49073;42.352;23.808;2023-05-12T04:54:03;95098.13;;;6.48;100.00
62978;BME280;49073;42.352;23.808;2023-05-12T04:57:03;95097.41;;;6.69;100.00
62978;BME280;49073;42.352;23.808;2023-05-12T05:00:05;95103.81;;;6.68;100.00
62978;BME280;49073;42.352;23.808;2023-05-12T05:03:06;95098.50;;;6.68;100.00
62978;BME280;49073;42.352;23.808;2023-05-12T05:06:06;95099.09;;;6.74;100.00
62978;BME280;49073;42.352;23.808;2023-05-12T05:09:07;95087.00;;;6.64;100.00
62978;BME280;49073;42.352;23.808;2023-05-12T05:12:08;95095.75;;;6.55;100.00
62978;BME280;49073;42.352;23.808;2023-05-12T05:15:09;95094.63;;;6.65;100.00
62978;BME280;49073;42.352;23.808;2023-05-12T05:18:10;95094.13;;;6.72;100.00
62978;BME280;49073;42.352;23.808;2023-05-12T05:21:12;95092.94;;;6.52;100.00
62978;BME280;49073;42.352;23.808;2023-05-12T05:24:15;95097.03;;;6.49;100.00
62978;BME280;49073;42.352;23.808;2023-05-12T05:27:15;95102.63;;;6.39;100.00
62978;BME280;49073;42.352;23.808;2023-05-12T05:30:16;95105.72;;;6.50;100.00
62978;BME280;49073;42.352;23.808;2023-05-12T05:33:16;95100.91;;;6.52;100.00
62978;BME280;49073;42.352;23.808;2023-05-12T05:36:17;95104.16;;;6.58;100.00
62978;BME280;49073;42.352;23.808;2023-05-12T05:39:17;95108.19;;;6.64;100.00
62978;BME280;49073;42.352;23.808;2023-05-12T05:42:18;95105.09;;;6.62;100.00
62978;BME280;49073;42.352;23.808;2023-05-12T05:45:19;95102.28;;;6.58;100.00
62978;BME280;49073;42.352;23.808;2023-05-12T05:48:19;95107.41;;;6.63;100.00
62978;BME280;49073;42.352;23.808;2023-05-12T05:51:20;95110.94;;;6.76;100.00
62978;BME280;49073;42.352;23.808;2023-05-12T05:54:22;95111.56;;;6.82;100.00
62978;BME280;49073;42.352;23.808;2023-05-12T05:57:24;95112.75;;;6.93;100.00
62978;BME280;49073;42.352;23.808;2023-05-12T06:00:27;95117.63;;;6.82;100.00
62978;BME280;49073;42.352;23.808;2023-05-12T06:03:27;95121.25;;;6.69;100.00
62978;BME280;49073;42.352;23.808;2023-05-12T06:06:28;95126.38;;;6.74;100.00
62978;BME280;49073;42.352;23.808;2023-05-12T06:09:28;95126.81;;;6.85;100.00
62978;BME280;49073;42.352;23.808;2023-05-12T06:12:29;95124.81;;;6.82;100.00
62978;BME280;49073;42.352;23.808;2023-05-12T06:15:30;95126.81;;;6.85;100.00
62978;BME280;49073;42.352;23.808;2023-05-12T06:18:30;95125.75;;;6.77;100.00
62978;BME280;49073;42.352;23.808;2023-05-12T06:21:37;95136.63;;;6.84;100.00
62978;BME280;49073;42.352;23.808;2023-05-12T06:24:38;95126.91;;;6.97;100.00
62978;BME280;49073;42.352;23.808;2023-05-12T06:27:38;95131.72;;;7.04;100.00
62978;BME280;49073;42.352;23.808;2023-05-12T06:30:39;95132.53;;;6.96;100.00
62978;BME280;49073;42.352;23.808;2023-05-12T06:33:39;95129.25;;;6.99;100.00
62978;BME280;49073;42.352;23.808;2023-05-12T06:36:40;95134.19;;;7.09;100.00
62978;BME280;49073;42.352;23.808;2023-05-12T06:39:40;95137.44;;;7.15;100.00
62978;BME280;49073;42.352;23.808;2023-05-12T06:42:41;95131.47;;;7.27;100.00
62978;BME280;49073;42.352;23.808;2023-05-12T06:45:42;95130.03;;;7.30;100.00
62978;BME280;49073;42.352;23.808;2023-05-12T06:48:43;95126.28;;;7.31;100.00
62978;BME280;49073;42.352;23.808;2023-05-12T06:51:44;95133.38;;;7.18;100.00
62978;BME280;49073;42.352;23.808;2023-05-12T06:54:45;95136.78;;;7.18;100.00
62978;BME280;49073;42.352;23.808;2023-05-12T06:57:47;95135.44;;;7.12;100.00
62978;BME280;49073;42.352;23.808;2023-05-12T07:00:48;95129.91;;;7.26;100.00
62978;BME280;49073;42.352;23.808;2023-05-12T07:03:49;95128.75;;;7.36;100.00
62978;BME280;49073;42.352;23.808;2023-05-12T07:06:50;95132.50;;;7.35;100.00
62978;BME280;49073;42.352;23.808;2023-05-12T07:09:51;95129.34;;;7.41;100.00
62978;BME280;49073;42.352;23.808;2023-05-12T07:12:52;95138.56;;;7.65;100.00
62978;BME280;49073;42.352;23.808;2023-05-12T07:15:52;95130.13;;;7.63;100.00
62978;BME280;49073;42.352;23.808;2023-05-12T07:18:53;95127.13;;;7.74;100.00
62978;BME280;49073;42.352;23.808;2023-05-12T07:21:53;95123.63;;;7.82;100.00
62978;BME280;49073;42.352;23.808;2023-05-12T07:24:54;95129.13;;;7.77;100.00
62978;BME280;49073;42.352;23.808;2023-05-12T07:27:55;95136.25;;;7.85;100.00
62978;BME280;49073;42.352;23.808;2023-05-12T07:30:55;95134.81;;;7.88;100.00
62978;BME280;49073;42.352;23.808;2023-05-12T07:33:56;95140.66;;;7.81;97.75
62978;BME280;49073;42.352;23.808;2023-05-12T07:36:56;95139.50;;;7.69;96.26
62978;BME280;49073;42.352;23.808;2023-05-12T07:39:58;95139.28;;;7.75;95.40
62978;BME280;49073;42.352;23.808;2023-05-12T07:42:59;95138.13;;;7.84;94.71
62978;BME280;49073;42.352;23.808;2023-05-12T07:45:59;95141.03;;;7.92;94.64
62978;BME280;49073;42.352;23.808;2023-05-12T07:49:00;95139.47;;;7.91;92.21
62978;BME280;49073;42.352;23.808;2023-05-12T07:52:01;95136.31;;;7.97;91.65
62978;BME280;49073;42.352;23.808;2023-05-12T07:55:01;95138.75;;;8.03;91.91
62978;BME280;49073;42.352;23.808;2023-05-12T07:58:05;95143.41;;;8.06;91.93
62978;BME280;49073;42.352;23.808;2023-05-12T08:01:05;95143.03;;;7.95;91.02
62978;BME280;49073;42.352;23.808;2023-05-12T08:04:08;95144.06;;;8.03;90.18
62978;BME280;49073;42.352;23.808;2023-05-12T08:07:08;95142.41;;;7.98;91.12
62978;BME280;49073;42.352;23.808;2023-05-12T08:10:10;95145.50;;;8.00;91.28
62978;BME280;49073;42.352;23.808;2023-05-12T08:13:12;95144.13;;;7.94;89.48
62978;BME280;49073;42.352;23.808;2023-05-12T08:16:12;95146.47;;;7.95;90.08
62978;BME280;49073;42.352;23.808;2023-05-12T08:19:13;95146.28;;;8.00;89.99
62978;BME280;49073;42.352;23.808;2023-05-12T08:22:13;95139.59;;;7.94;89.07
62978;BME280;49073;42.352;23.808;2023-05-12T08:25:14;95150.03;;;7.99;89.10
62978;BME280;49073;42.352;23.808;2023-05-12T08:28:14;95140.06;;;7.96;89.25
62978;BME280;49073;42.352;23.808;2023-05-12T08:31:15;95149.31;;;7.90;88.27
62978;BME280;49073;42.352;23.808;2023-05-12T08:34:15;95139.34;;;8.08;90.39
62978;BME280;49073;42.352;23.808;2023-05-12T08:37:17;95154.09;;;8.18;91.25
62978;BME280;49073;42.352;23.808;2023-05-12T08:40:20;95153.19;;;8.14;89.56
62978;BME280;49073;42.352;23.808;2023-05-12T08:43:25;95149.44;;;8.15;89.65
62978;BME280;49073;42.352;23.808;2023-05-12T08:46:30;95153.88;;;8.23;89.56
62978;BME280;49073;42.352;23.808;2023-05-12T08:49:33;95148.56;;;8.23;89.56
62978;BME280;49073;42.352;23.808;2023-05-12T08:52:35;95155.44;;;8.24;88.31
62978;BME280;49073;42.352;23.808;2023-05-12T08:55:36;95145.34;;;8.39;87.84
62978;BME280;49073;42.352;23.808;2023-05-12T08:58:36;95152.03;;;8.24;87.12
62978;BME280;49073;42.352;23.808;2023-05-12T09:01:37;95146.31;;;8.34;87.57
62978;BME280;49073;42.352;23.808;2023-05-12T09:04:41;95143.59;;;8.22;85.93
62978;BME280;49073;42.352;23.808;2023-05-12T09:07:43;95144.38;;;8.22;85.42
62978;BME280;49073;42.352;23.808;2023-05-12T09:10:47;95150.72;;;8.30;85.62
62978;BME280;49073;42.352;23.808;2023-05-12T09:14:04;95140.22;;;8.34;85.78
62978;BME280;49073;42.352;23.808;2023-05-12T09:17:08;95133.47;;;8.36;85.17
62978;BME280;49073;42.352;23.808;2023-05-12T09:20:09;95129.28;;;8.48;86.54
62978;BME280;49073;42.352;23.808;2023-05-12T09:23:20;95133.22;;;8.50;86.17
62978;BME280;49073;42.352;23.808;2023-05-12T09:26:22;95117.78;;;8.43;87.05
62978;BME280;49073;42.352;23.808;2023-05-12T09:29:23;95126.28;;;8.37;86.95
62978;BME280;49073;42.352;23.808;2023-05-12T09:32:31;95120.03;;;8.54;85.78
62978;BME280;49073;42.352;23.808;2023-05-12T09:35:44;95129.47;;;8.64;85.60
62978;BME280;49073;42.352;23.808;2023-05-12T09:38:45;95123.97;;;8.69;84.97
62978;BME280;49073;42.352;23.808;2023-05-12T09:41:46;95129.94;;;8.78;84.12
62978;BME280;49073;42.352;23.808;2023-05-12T09:44:47;95130.53;;;8.84;83.94
62978;BME280;49073;42.352;23.808;2023-05-12T09:47:47;95130.00;;;8.91;84.05
62978;BME280;49073;42.352;23.808;2023-05-12T09:50:50;95135.97;;;8.87;84.01
62978;BME280;49073;42.352;23.808;2023-05-12T09:53:51;95129.09;;;8.86;82.49
62978;BME280;49073;42.352;23.808;2023-05-12T09:56:58;95126.53;;;8.90;81.05
62978;BME280;49073;42.352;23.808;2023-05-12T09:59:59;95118.25;;;8.92;81.54
62978;BME280;49073;42.352;23.808;2023-05-12T10:03:00;95121.56;;;8.88;85.64
62978;BME280;49073;42.352;23.808;2023-05-12T10:06:02;95117.69;;;8.86;87.06
62978;BME280;49073;42.352;23.808;2023-05-12T10:09:27;95124.22;;;8.88;88.96
62978;BME280;49073;42.352;23.808;2023-05-12T10:12:28;95124.22;;;8.88;89.23
62978;BME280;49073;42.352;23.808;2023-05-12T10:15:30;95115.28;;;9.18;89.97
62978;BME280;49073;42.352;23.808;2023-05-12T10:18:33;95118.47;;;9.11;86.50
62978;BME280;49073;42.352;23.808;2023-05-12T10:21:35;95119.59;;;9.10;85.86
62978;BME280;49073;42.352;23.808;2023-05-12T10:24:36;95123.88;;;9.02;86.68
62978;BME280;49073;42.352;23.808;2023-05-12T10:27:37;95129.09;;;9.11;88.16
62978;BME280;49073;42.352;23.808;2023-05-12T10:30:39;95124.13;;;9.22;88.30
62978;BME280;49073;42.352;23.808;2023-05-12T10:33:41;95128.22;;;9.32;87.28
62978;BME280;49073;42.352;23.808;2023-05-12T10:36:45;95128.22;;;9.44;86.05
62978;BME280;49073;42.352;23.808;2023-05-12T10:39:48;95122.00;;;9.40;84.34
62978;BME280;49073;42.352;23.808;2023-05-12T10:42:49;95118.53;;;9.65;84.28
62978;BME280;49073;42.352;23.808;2023-05-12T10:46:15;95121.28;;;9.81;83.88
62978;BME280;49073;42.352;23.808;2023-05-12T10:49:16;95113.00;;;9.98;84.67
62978;BME280;49073;42.352;23.808;2023-05-12T10:52:19;95125.25;;;10.15;83.48
62978;BME280;49073;42.352;23.808;2023-05-12T10:55:33;95117.44;;;10.07;82.28
62978;BME280;49073;42.352;23.808;2023-05-12T10:58:34;95117.31;;;10.03;81.86
62978;BME280;49073;42.352;23.808;2023-05-12T11:01:35;95114.13;;;9.97;81.33
62978;BME280;49073;42.352;23.808;2023-05-12T11:07:47;95110.34;;;9.98;82.51
62978;BME280;49073;42.352;23.808;2023-05-12T11:10:49;95104.88;;;10.07;81.45
62978;BME280;49073;42.352;23.808;2023-05-12T11:13:50;95108.28;;;10.20;81.71
62978;BME280;49073;42.352;23.808;2023-05-12T11:16:52;95103.81;;;10.24;79.75
62978;BME280;49073;42.352;23.808;2023-05-12T11:19:52;95101.25;;;10.28;80.22
62978;BME280;49073;42.352;23.808;2023-05-12T11:22:54;95095.03;;;10.24;79.39
62978;BME280;49073;42.352;23.808;2023-05-12T11:25:57;95100.19;;;10.45;78.83
62978;BME280;49073;42.352;23.808;2023-05-12T11:28:58;95096.94;;;10.52;78.37
62978;BME280;49073;42.352;23.808;2023-05-12T11:31:59;95104.56;;;10.37;77.09
62978;BME280;49073;42.352;23.808;2023-05-12T11:38:18;95099.50;;;10.48;77.15
62978;BME280;49073;42.352;23.808;2023-05-12T11:41:25;95101.63;;;10.71;78.33
62978;BME280;49073;42.352;23.808;2023-05-12T11:44:25;95097.16;;;10.75;77.56
62978;BME280;49073;42.352;23.808;2023-05-12T11:47:26;95110.03;;;11.05;78.68
62978;BME280;49073;42.352;23.808;2023-05-12T11:50:27;95102.97;;;11.13;77.16
62978;BME280;49073;42.352;23.808;2023-05-12T11:53:27;95103.31;;;11.11;75.23
62978;BME280;49073;42.352;23.808;2023-05-12T11:56:28;95100.75;;;10.99;72.94
62978;BME280;49073;42.352;23.808;2023-05-12T11:59:32;95102.22;;;10.96;72.45
62978;BME280;49073;42.352;23.808;2023-05-12T12:02:32;95101.09;;;10.97;72.50
62978;BME280;49073;42.352;23.808;2023-05-12T12:05:34;95104.19;;;10.99;70.99
62978;BME280;49073;42.352;23.808;2023-05-12T12:08:35;95105.56;;;11.09;72.50
62978;BME280;49073;42.352;23.808;2023-05-12T12:11:39;95101.06;;;11.13;70.60
62978;BME280;49073;42.352;23.808;2023-05-12T12:14:40;95103.16;;;11.20;69.88
62978;BME280;49073;42.352;23.808;2023-05-12T12:17:40;95099.44;;;11.25;70.60
62978;BME280;49073;42.352;23.808;2023-05-12T12:20:42;95100.31;;;11.29;69.89
62978;BME280;49073;42.352;23.808;2023-05-12T12:23:43;95092.72;;;11.31;70.78
62978;BME280;49073;42.352;23.808;2023-05-12T12:26:44;95096.00;;;11.24;70.14
62978;BME280;49073;42.352;23.808;2023-05-12T12:29:44;95108.66;;;11.11;69.75
62978;BME280;49073;42.352;23.808;2023-05-12T12:32:45;95101.44;;;11.28;72.04
62978;BME280;49073;42.352;23.808;2023-05-12T12:35:46;95102.16;;;11.44;70.85
62978;BME280;49073;42.352;23.808;2023-05-12T12:38:47;95102.13;;;11.25;69.71
62978;BME280;49073;42.352;23.808;2023-05-12T12:41:48;95095.66;;;11.26;69.02
62978;BME280;49073;42.352;23.808;2023-05-12T12:44:48;95092.47;;;11.20;70.77
62978;BME280;49073;42.352;23.808;2023-05-12T12:47:51;95096.09;;;11.28;71.78
62978;BME280;49073;42.352;23.808;2023-05-12T12:50:56;95103.75;;;11.13;69.36
62978;BME280;49073;42.352;23.808;2023-05-12T12:53:58;95101.84;;;11.30;70.66
62978;BME280;49073;42.352;23.808;2023-05-12T12:56:58;95105.28;;;11.30;70.65
62978;BME280;49073;42.352;23.808;2023-05-12T12:59:59;95097.84;;;11.40;72.75
62978;BME280;49073;42.352;23.808;2023-05-12T13:02:59;95093.91;;;11.33;70.34
62978;BME280;49073;42.352;23.808;2023-05-12T13:06:00;95103.97;;;11.40;70.26
62978;BME280;49073;42.352;23.808;2023-05-12T13:09:01;95089.94;;;11.43;70.53
62978;BME280;49073;42.352;23.808;2023-05-12T13:12:03;95083.81;;;11.43;69.85
62978;BME280;49073;42.352;23.808;2023-05-12T13:15:04;95088.41;;;11.42;68.81
62978;BME280;49073;42.352;23.808;2023-05-12T13:18:06;95089.78;;;11.36;68.36
62978;BME280;49073;42.352;23.808;2023-05-12T13:21:06;95086.59;;;11.30;67.92
62978;BME280;49073;42.352;23.808;2023-05-12T13:24:07;95095.81;;;11.33;69.04
62978;BME280;49073;42.352;23.808;2023-05-12T13:27:08;95094.00;;;11.37;69.25
62978;BME280;49073;42.352;23.808;2023-05-12T13:30:08;95093.41;;;11.28;68.29
62978;BME280;49073;42.352;23.808;2023-05-12T13:33:09;95090.47;;;11.33;69.98
62978;BME280;49073;42.352;23.808;2023-05-12T13:36:11;95094.53;;;11.27;69.95
62978;BME280;49073;42.352;23.808;2023-05-12T13:39:11;95088.34;;;11.23;69.28
62978;BME280;49073;42.352;23.808;2023-05-12T13:42:12;95091.72;;;11.19;70.86
62978;BME280;49073;42.352;23.808;2023-05-12T13:45:13;95095.31;;;11.27;71.56
62978;BME280;49073;42.352;23.808;2023-05-12T13:48:13;95088.84;;;11.12;70.92
62978;BME280;49073;42.352;23.808;2023-05-12T13:51:14;95085.50;;;11.15;71.43
62978;BME280;49073;42.352;23.808;2023-05-12T13:54:15;95091.25;;;11.17;73.33
62978;BME280;49073;42.352;23.808;2023-05-12T13:57:15;95098.50;;;11.01;70.80
62978;BME280;49073;42.352;23.808;2023-05-12T14:00:16;95095.16;;;11.04;68.97
62978;BME280;49073;42.352;23.808;2023-05-12T14:03:16;95097.81;;;11.04;69.97
62978;BME280;49073;42.352;23.808;2023-05-12T14:06:17;95098.59;;;11.04;70.33
62978;BME280;49073;42.352;23.808;2023-05-12T14:09:18;95091.03;;;11.06;69.74
62978;BME280;49073;42.352;23.808;2023-05-12T14:12:19;95088.16;;;11.15;70.10
62978;BME280;49073;42.352;23.808;2023-05-12T14:15:19;95090.41;;;11.13;69.98
62978;BME280;49073;42.352;23.808;2023-05-12T14:18:20;95098.41;;;11.13;69.53
62978;BME280;49073;42.352;23.808;2023-05-12T14:21:21;95094.81;;;11.05;68.78
62978;BME280;49073;42.352;23.808;2023-05-12T14:24:21;95094.38;;;11.03;69.18
62978;BME280;49073;42.352;23.808;2023-05-12T14:27:22;95087.69;;;11.10;69.38
62978;BME280;49073;42.352;23.808;2023-05-12T14:30:23;95085.00;;;11.10;67.78
62978;BME280;49073;42.352;23.808;2023-05-12T14:33:26;95082.41;;;11.13;68.09
62978;BME280;49073;42.352;23.808;2023-05-12T14:36:27;95077.34;;;11.08;67.28
62978;BME280;49073;42.352;23.808;2023-05-12T14:39:27;95077.28;;;11.04;67.73
62978;BME280;49073;42.352;23.808;2023-05-12T14:42:28;95081.47;;;11.22;69.05
62978;BME280;49073;42.352;23.808;2023-05-12T14:45:29;95075.22;;;11.33;68.98
62978;BME280;49073;42.352;23.808;2023-05-12T14:48:30;95081.63;;;11.29;67.95
62978;BME280;49073;42.352;23.808;2023-05-12T14:51:31;95076.72;;;11.31;70.71
62978;BME280;49073;42.352;23.808;2023-05-12T14:54:32;95085.75;;;11.26;70.52
62978;BME280;49073;42.352;23.808;2023-05-12T14:57:33;95080.53;;;11.14;71.76
62978;BME280;49073;42.352;23.808;2023-05-12T15:00:35;95078.28;;;11.00;70.74
62978;BME280;49073;42.352;23.808;2023-05-12T15:03:37;95066.25;;;11.06;70.76
62978;BME280;49073;42.352;23.808;2023-05-12T15:06:37;95067.38;;;11.05;73.60
62978;BME280;49073;42.352;23.808;2023-05-12T15:09:38;95070.03;;;11.05;76.26
62978;BME280;49073;42.352;23.808;2023-05-12T15:12:38;95072.78;;;10.93;75.88
62978;BME280;49073;42.352;23.808;2023-05-12T15:15:39;95060.75;;;10.99;76.92
62978;BME280;49073;42.352;23.808;2023-05-12T15:18:39;95054.56;;;10.95;77.12
62978;BME280;49073;42.352;23.808;2023-05-12T15:21:40;95048.28;;;11.03;75.49
62978;BME280;49073;42.352;23.808;2023-05-12T15:24:41;95044.16;;;11.05;76.14
62978;BME280;49073;42.352;23.808;2023-05-12T15:27:42;95048.34;;;11.06;74.34
62978;BME280;49073;42.352;23.808;2023-05-12T15:30:42;95054.38;;;11.03;72.19
62978;BME280;49073;42.352;23.808;2023-05-12T15:33:44;95055.16;;;11.04;73.17
62978;BME280;49073;42.352;23.808;2023-05-12T15:36:44;95050.78;;;10.96;73.17
62978;BME280;49073;42.352;23.808;2023-05-12T15:39:47;95057.91;;;11.08;75.14
62978;BME280;49073;42.352;23.808;2023-05-12T15:42:50;95055.25;;;11.08;71.10
62978;BME280;49073;42.352;23.808;2023-05-12T15:45:50;95051.72;;;11.03;69.83
62978;BME280;49073;42.352;23.808;2023-05-12T15:48:51;95052.63;;;11.11;69.95
62978;BME280;49073;42.352;23.808;2023-05-12T15:51:52;95057.28;;;11.14;69.77
62978;BME280;49073;42.352;23.808;2023-05-12T15:54:52;95052.75;;;10.99;69.49
62978;BME280;49073;42.352;23.808;2023-05-12T15:57:53;95048.28;;;11.03;68.17